sensor_id;sensor_type;location;lat;lon;timestamp;pressure;altitude;pressure_sealevel;temperature;humidity
18167;BME280;9208;42.688;23.404;2023-01-30T00:00:34;95793.50;;;2.47;100.00
18167;BME280;9208;42.688;23.404;2023-01-30T00:03:00;95788.09;;;2.47;100.00
18167;BME280;9208;42.688;23.404;2023-01-30T00:05:29;95772.44;;;2.39;100.00
18167;BME280;9208;42.688;23.404;2023-01-30T00:07:54;95772.22;;;2.49;100.00
18167;BME280;9208;42.688;23.404;2023-01-30T00:10:19;95775.41;;;2.44;100.00
18167;BME280;9208;42.688;23.404;2023-01-30T00:12:45;95770.72;;;2.48;100.00
18167;BME280;9208;42.688;23.404;2023-01-30T00:15:10;95768.06;;;2.25;100.00
18167;BME280;9208;42.688;23.404;2023-01-30T00:17:36;95771.72;;;2.35;100.00
18167;BME280;9208;42.688;23.404;2023-01-30T00:20:02;95770.13;;;2.37;100.00
18167;BME280;9208;42.688;23.404;2023-01-30T00:22:27;95772.44;;;2.39;100.00
18167;BME280;9208;42.688;23.404;2023-01-30T00:24:53;95770.22;;;2.34;100.00
18167;BME280;9208;42.688;23.404;2023-01-30T00:27:18;95774.09;;;2.33;100.00
18167;BME280;9208;42.688;23.404;2023-01-30T00:29:44;95766.91;;;2.26;100.00
18167;BME280;9208;42.688;23.404;2023-01-30T00:32:09;95767.00;;;2.19;100.00
18167;BME280;9208;42.688;23.404;2023-01-30T00:34:37;95768.06;;;2.06;100.00
18167;BME280;9208;42.688;23.404;2023-01-30T00:37:03;95766.47;;;2.08;100.00
18167;BME280;9208;42.688;23.404;2023-01-30T00:39:28;95761.75;;;2.12;100.00
18167;BME280;9208;42.688;23.404;2023-01-30T00:41:54;95751.28;;;2.14;100.00
18167;BME280;9208;42.688;23.404;2023-01-30T00:44:38;95746.28;;;2.13;100.00
18167;BME280;9208;42.688;23.404;2023-01-30T00:47:22;95749.88;;;2.06;100.00
18167;BME280;9208;42.688;23.404;2023-01-30T00:49:47;95753.91;;;1.98;100.00
18167;BME280;9208;42.688;23.404;2023-01-30T00:52:13;95751.84;;;2.06;100.00
18167;BME280;9208;42.688;23.404;2023-01-30T00:54:38;95756.88;;;2.04;100.00
18167;BME280;9208;42.688;23.404;2023-01-30T00:57:03;95749.06;;;2.09;100.00
18167;BME280;9208;42.688;23.404;2023-01-30T00:59:29;95756.47;;;2.05;100.00
18167;BME280;9208;42.688;23.404;2023-01-30T01:01:54;95746.44;;;2.06;100.00
18167;BME280;9208;42.688;23.404;2023-01-30T01:04:20;95746.03;;;2.07;100.00
18167;BME280;9208;42.688;23.404;2023-01-30T01:06:45;95750.44;;;1.98;100.00
18167;BME280;9208;42.688;23.404;2023-01-30T01:09:11;95747.66;;;2.01;100.00
18167;BME280;9208;42.688;23.404;2023-01-30T01:11:36;95760.97;;;1.92;100.00
18167;BME280;9208;42.688;23.404;2023-01-30T01:14:03;95753.34;;;1.87;100.00
18167;BME280;9208;42.688;23.404;2023-01-30T01:16:30;95746.75;;;1.88;100.00
18167;BME280;9208;42.688;23.404;2023-01-30T01:18:56;95746.34;;;1.90;100.00
18167;BME280;9208;42.688;23.404;2023-01-30T01:21:22;95743.56;;;1.93;100.00
18167;BME280;9208;42.688;23.404;2023-01-30T01:23:52;95741.28;;;1.92;100.00
18167;BME280;9208;42.688;23.404;2023-01-30T01:26:18;95736.09;;;2.01;100.00
18167;BME280;9208;42.688;23.404;2023-01-30T01:28:44;95741.41;;;1.85;100.00
18167;BME280;9208;42.688;23.404;2023-01-30T01:31:10;95741.00;;;1.86;100.00
18167;BME280;9208;42.688;23.404;2023-01-30T01:33:36;95730.13;;;1.90;100.00
18167;BME280;9208;42.688;23.404;2023-01-30T01:36:02;95731.38;;;1.85;100.00
18167;BME280;9208;42.688;23.404;2023-01-30T01:38:28;95723.72;;;1.61;100.00
18167;BME280;9208;42.688;23.404;2023-01-30T01:40:54;95737.16;;;1.64;100.00
18167;BME280;9208;42.688;23.404;2023-01-30T01:46:25;95726.34;;;1.64;100.00
18167;BME280;9208;42.688;23.404;2023-01-30T01:48:58;95732.22;;;1.59;100.00
18167;BME280;9208;42.688;23.404;2023-01-30T01:51:27;95726.03;;;1.59;100.00
18167;BME280;9208;42.688;23.404;2023-01-30T01:54:28;95732.81;;;1.47;100.00
18167;BME280;9208;42.688;23.404;2023-01-30T01:56:59;95724.38;;;1.45;100.00
18167;BME280;9208;42.688;23.404;2023-01-30T01:59:55;95730.88;;;1.48;100.00
18167;BME280;9208;42.688;23.404;2023-01-30T02:02:18;95728.41;;;1.57;100.00
18167;BME280;9208;42.688;23.404;2023-01-30T02:04:47;95730.81;;;1.51;100.00
18167;BME280;9208;42.688;23.404;2023-01-30T02:07:47;95733.19;;;1.49;100.00
18167;BME280;9208;42.688;23.404;2023-01-30T02:10:24;95731.84;;;1.57;100.00
18167;BME280;9208;42.688;23.404;2023-01-30T02:12:52;95732.41;;;1.49;100.00
18167;BME280;9208;42.688;23.404;2023-01-30T02:15:18;95727.38;;;1.51;100.00
18167;BME280;9208;42.688;23.404;2023-01-30T02:17:44;95728.47;;;1.53;100.00
18167;BME280;9208;42.688;23.404;2023-01-30T02:33:39;95719.31;;;1.47;100.00
18167;BME280;9208;42.688;23.404;2023-01-30T02:42:35;95714.50;;;1.58;100.00
18167;BME280;9208;42.688;23.404;2023-01-30T02:50:24;95715.19;;;1.62;100.00
18167;BME280;9208;42.688;23.404;2023-01-30T02:52:52;95706.81;;;1.57;100.00
18167;BME280;9208;42.688;23.404;2023-01-30T02:55:20;95707.44;;;1.64;100.00
18167;BME280;9208;42.688;23.404;2023-01-30T02:57:45;95706.66;;;1.64;100.00
18167;BME280;9208;42.688;23.404;2023-01-30T03:00:19;95707.50;;;1.61;100.00
18167;BME280;9208;42.688;23.404;2023-01-30T03:05:51;95712.56;;;1.78;100.00
18167;BME280;9208;42.688;23.404;2023-01-30T03:11:13;95710.84;;;1.88;100.00
18167;BME280;9208;42.688;23.404;2023-01-30T03:13:52;95704.25;;;1.89;100.00
18167;BME280;9208;42.688;23.404;2023-01-30T03:18:51;95701.28;;;1.83;100.00
18167;BME280;9208;42.688;23.404;2023-01-30T03:21:18;95700.78;;;1.88;100.00
18167;BME280;9208;42.688;23.404;2023-01-30T03:23:44;95694.97;;;1.90;100.00
18167;BME280;9208;42.688;23.404;2023-01-30T03:26:17;95689.16;;;1.91;100.00
18167;BME280;9208;42.688;23.404;2023-01-30T03:28:45;95684.53;;;1.92;100.00
18167;BME280;9208;42.688;23.404;2023-01-30T03:31:13;95678.34;;;1.91;100.00
18167;BME280;9208;42.688;23.404;2023-01-30T03:33:38;95684.84;;;1.94;100.00
18167;BME280;9208;42.688;23.404;2023-01-30T03:36:04;95677.84;;;1.96;100.00
18167;BME280;9208;42.688;23.404;2023-01-30T03:38:30;95680.56;;;1.96;100.00
18167;BME280;9208;42.688;23.404;2023-01-30T03:40:55;95679.44;;;1.94;100.00
18167;BME280;9208;42.688;23.404;2023-01-30T03:43:21;95674.41;;;1.96;100.00
18167;BME280;9208;42.688;23.404;2023-01-30T03:45:46;95680.16;;;1.98;100.00
18167;BME280;9208;42.688;23.404;2023-01-30T03:48:12;95681.66;;;1.99;100.00
18167;BME280;9208;42.688;23.404;2023-01-30T03:50:37;95683.63;;;1.98;100.00
18167;BME280;9208;42.688;23.404;2023-01-30T03:53:02;95680.91;;;1.98;100.00
18167;BME280;9208;42.688;23.404;2023-01-30T03:55:28;95679.81;;;1.96;100.00
18167;BME280;9208;42.688;23.404;2023-01-30T03:57:55;95669.25;;;2.01;100.00
18167;BME280;9208;42.688;23.404;2023-01-30T04:00:21;95675.06;;;2.00;100.00
18167;BME280;9208;42.688;23.404;2023-01-30T04:02:46;95665.53;;;1.95;100.00
18167;BME280;9208;42.688;23.404;2023-01-30T04:05:12;95670.09;;;1.98;100.00
18167;BME280;9208;42.688;23.404;2023-01-30T04:07:37;95671.53;;;2.03;100.00
18167;BME280;9208;42.688;23.404;2023-01-30T04:10:03;95666.06;;;2.06;100.00
18167;BME280;9208;42.688;23.404;2023-01-30T04:12:29;95674.94;;;2.07;100.00
18167;BME280;9208;42.688;23.404;2023-01-30T04:14:54;95675.03;;;2.03;100.00
18167;BME280;9208;42.688;23.404;2023-01-30T04:17:19;95675.94;;;1.97;100.00
18167;BME280;9208;42.688;23.404;2023-01-30T04:19:45;95673.22;;;1.97;100.00
18167;BME280;9208;42.688;23.404;2023-01-30T04:22:10;95664.69;;;1.98;100.00
18167;BME280;9208;42.688;23.404;2023-01-30T04:24:36;95673.47;;;2.02;100.00
18167;BME280;9208;42.688;23.404;2023-01-30T04:27:01;95660.81;;;1.99;100.00
18167;BME280;9208;42.688;23.404;2023-01-30T04:29:27;95672.38;;;2.00;100.00
18167;BME280;9208;42.688;23.404;2023-01-30T04:31:55;95663.66;;;1.92;100.00
18167;BME280;9208;42.688;23.404;2023-01-30T04:34:20;95667.41;;;1.98;100.00
18167;BME280;9208;42.688;23.404;2023-01-30T04:36:46;95675.34;;;2.05;100.00
18167;BME280;9208;42.688;23.404;2023-01-30T04:39:11;95659.34;;;1.95;100.00
18167;BME280;9208;42.688;23.404;2023-01-30T04:41:37;95678.22;;;1.98;100.00
18167;BME280;9208;42.688;23.404;2023-01-30T04:44:02;95666.97;;;2.00;100.00
18167;BME280;9208;42.688;23.404;2023-01-30T04:46:28;95658.84;;;2.00;100.00
18167;BME280;9208;42.688;23.404;2023-01-30T04:48:53;95655.41;;;1.99;100.00
18167;BME280;9208;42.688;23.404;2023-01-30T04:51:18;95653.13;;;1.98;100.00
18167;BME280;9208;42.688;23.404;2023-01-30T04:53:44;95650.69;;;2.03;100.00
18167;BME280;9208;42.688;23.404;2023-01-30T04:56:09;95648.59;;;1.91;100.00
18167;BME280;9208;42.688;23.404;2023-01-30T04:58:35;95645.78;;;1.98;100.00
18167;BME280;9208;42.688;23.404;2023-01-30T05:01:18;95643.75;;;2.02;100.00
18167;BME280;9208;42.688;23.404;2023-01-30T05:03:48;95640.09;;;1.93;100.00
18167;BME280;9208;42.688;23.404;2023-01-30T05:06:14;95642.72;;;1.96;100.00
18167;BME280;9208;42.688;23.404;2023-01-30T05:08:39;95642.72;;;1.96;100.00
18167;BME280;9208;42.688;23.404;2023-01-30T05:11:04;95641.97;;;1.96;100.00
18167;BME280;9208;42.688;23.404;2023-01-30T05:13:30;95644.72;;;1.92;100.00
18167;BME280;9208;42.688;23.404;2023-01-30T05:15:55;95649.31;;;1.95;100.00
18167;BME280;9208;42.688;23.404;2023-01-30T05:18:23;95643.47;;;1.97;100.00
18167;BME280;9208;42.688;23.404;2023-01-30T05:20:49;95647.22;;;1.83;100.00
18167;BME280;9208;42.688;23.404;2023-01-30T05:23:14;95649.44;;;1.88;100.00
18167;BME280;9208;42.688;23.404;2023-01-30T05:25:40;95655.19;;;1.90;100.00
18167;BME280;9208;42.688;23.404;2023-01-30T05:28:08;95649.44;;;1.88;100.00
18167;BME280;9208;42.688;23.404;2023-01-30T05:30:33;95650.69;;;1.84;100.00
18167;BME280;9208;42.688;23.404;2023-01-30T05:32:59;95656.78;;;1.88;100.00
18167;BME280;9208;42.688;23.404;2023-01-30T05:35:24;95655.91;;;1.94;100.00
18167;BME280;9208;42.688;23.404;2023-01-30T05:37:50;95652.50;;;1.90;100.00
18167;BME280;9208;42.688;23.404;2023-01-30T05:40:16;95648.19;;;1.93;100.00
18167;BME280;9208;42.688;23.404;2023-01-30T05:42:42;95645.56;;;1.89;100.00
18167;BME280;9208;42.688;23.404;2023-01-30T05:45:08;95651.59;;;1.97;100.00
18167;BME280;9208;42.688;23.404;2023-01-30T05:47:33;95660.44;;;1.97;100.00
18167;BME280;9208;42.688;23.404;2023-01-30T05:49:59;95656.59;;;1.98;100.00
18167;BME280;9208;42.688;23.404;2023-01-30T05:52:24;95654.72;;;1.95;100.00
18167;BME280;9208;42.688;23.404;2023-01-30T05:54:50;95653.81;;;2.02;100.00
18167;BME280;9208;42.688;23.404;2023-01-30T05:57:15;95660.31;;;2.04;100.00
18167;BME280;9208;42.688;23.404;2023-01-30T05:59:41;95663.78;;;2.05;100.00
18167;BME280;9208;42.688;23.404;2023-01-30T06:02:06;95669.41;;;1.94;100.00
18167;BME280;9208;42.688;23.404;2023-01-30T06:04:32;95667.53;;;1.91;100.00
18167;BME280;9208;42.688;23.404;2023-01-30T06:06:57;95672.16;;;1.91;100.00
18167;BME280;9208;42.688;23.404;2023-01-30T06:09:23;95666.63;;;1.78;100.00
18167;BME280;9208;42.688;23.404;2023-01-30T06:11:48;95670.03;;;1.82;100.00
18167;BME280;9208;42.688;23.404;2023-01-30T06:14:16;95666.91;;;1.84;100.00
18167;BME280;9208;42.688;23.404;2023-01-30T06:16:42;95659.53;;;1.84;100.00
18167;BME280;9208;42.688;23.404;2023-01-30T06:19:08;95657.63;;;1.85;100.00
18167;BME280;9208;42.688;23.404;2023-01-30T06:21:33;95656.03;;;1.87;100.00
18167;BME280;9208;42.688;23.404;2023-01-30T06:23:58;95656.91;;;1.81;100.00
18167;BME280;9208;42.688;23.404;2023-01-30T06:26:24;95645.22;;;1.87;100.00
18167;BME280;9208;42.688;23.404;2023-01-30T06:28:49;95647.59;;;1.85;100.00
18167;BME280;9208;42.688;23.404;2023-01-30T06:31:15;95657.00;;;1.77;100.00
18167;BME280;9208;42.688;23.404;2023-01-30T06:33:42;95650.91;;;1.73;100.00
18167;BME280;9208;42.688;23.404;2023-01-30T06:36:08;95652.41;;;1.74;100.00
18167;BME280;9208;42.688;23.404;2023-01-30T06:38:34;95646.25;;;1.74;100.00
18167;BME280;9208;42.688;23.404;2023-01-30T06:41:00;95653.94;;;1.75;100.00
18167;BME280;9208;42.688;23.404;2023-01-30T06:43:25;95650.47;;;1.75;100.00
18167;BME280;9208;42.688;23.404;2023-01-30T06:45:51;95654.41;;;1.70;100.00
18167;BME280;9208;42.688;23.404;2023-01-30T06:48:16;95660.19;;;1.72;100.00
18167;BME280;9208;42.688;23.404;2023-01-30T06:50:42;95662.53;;;1.70;100.00
18167;BME280;9208;42.688;23.404;2023-01-30T06:53:10;95661.16;;;1.62;100.00
18167;BME280;9208;42.688;23.404;2023-01-30T06:55:36;95665.00;;;1.61;100.00
18167;BME280;9208;42.688;23.404;2023-01-30T06:58:10;95666.28;;;1.57;100.00
18167;BME280;9208;42.688;23.404;2023-01-30T07:00:37;95662.19;;;1.68;100.00
18167;BME280;9208;42.688;23.404;2023-01-30T07:03:04;95663.91;;;1.59;100.00
18167;BME280;9208;42.688;23.404;2023-01-30T07:05:30;95668.78;;;1.67;100.00
18167;BME280;9208;42.688;23.404;2023-01-30T07:07:58;95673.28;;;1.74;100.00
18167;BME280;9208;42.688;23.404;2023-01-30T07:10:24;95679.81;;;1.76;100.00
18167;BME280;9208;42.688;23.404;2023-01-30T07:12:50;95674.31;;;1.80;100.00
18167;BME280;9208;42.688;23.404;2023-01-30T07:15:16;95673.06;;;1.84;100.00
18167;BME280;9208;42.688;23.404;2023-01-30T07:17:41;95678.41;;;1.88;100.00
18167;BME280;9208;42.688;23.404;2023-01-30T07:20:08;95676.31;;;1.76;100.00
18167;BME280;9208;42.688;23.404;2023-01-30T07:22:35;95672.25;;;1.87;100.00
18167;BME280;9208;42.688;23.404;2023-01-30T07:25:03;95675.03;;;1.84;100.00
18167;BME280;9208;42.688;23.404;2023-01-30T07:27:28;95675.31;;;1.89;100.00
18167;BME280;9208;42.688;23.404;2023-01-30T07:29:54;95675.22;;;1.93;100.00
18167;BME280;9208;42.688;23.404;2023-01-30T07:32:19;95682.34;;;1.83;100.00
18167;BME280;9208;42.688;23.404;2023-01-30T07:34:45;95687.91;;;1.96;100.00
18167;BME280;9208;42.688;23.404;2023-01-30T07:37:11;95686.03;;;1.93;100.00
18167;BME280;9208;42.688;23.404;2023-01-30T07:39:39;95696.09;;;1.92;100.00
18167;BME280;9208;42.688;23.404;2023-01-30T07:42:05;95691.38;;;1.96;100.00
18167;BME280;9208;42.688;23.404;2023-01-30T07:44:30;95691.66;;;2.02;100.00
18167;BME280;9208;42.688;23.404;2023-01-30T07:46:58;95684.28;;;2.02;100.00
18167;BME280;9208;42.688;23.404;2023-01-30T07:49:24;95679.81;;;1.96;100.00
18167;BME280;9208;42.688;23.404;2023-01-30T07:51:50;95680.91;;;1.98;100.00
18167;BME280;9208;42.688;23.404;2023-01-30T07:54:16;95675.03;;;2.03;100.00
18167;BME280;9208;42.688;23.404;2023-01-30T07:56:41;95680.91;;;1.98;100.00
18167;BME280;9208;42.688;23.404;2023-01-30T07:59:09;95673.16;;;2.00;100.00
18167;BME280;9208;42.688;23.404;2023-01-30T08:01:35;95666.56;;;2.01;100.00
18167;BME280;9208;42.688;23.404;2023-01-30T08:04:00;95661.84;;;2.05;100.00
18167;BME280;9208;42.688;23.404;2023-01-30T08:06:26;95660.31;;;2.04;100.00
18167;BME280;9208;42.688;23.404;2023-01-30T08:08:51;95659.06;;;2.09;100.00
18167;BME280;9208;42.688;23.404;2023-01-30T08:11:17;95662.66;;;2.02;100.00
18167;BME280;9208;42.688;23.404;2023-01-30T08:13:42;95660.16;;;2.11;100.00
18167;BME280;9208;42.688;23.404;2023-01-30T08:16:08;95659.41;;;2.11;100.00
18167;BME280;9208;42.688;23.404;2023-01-30T08:18:33;95657.19;;;2.06;100.00
18167;BME280;9208;42.688;23.404;2023-01-30T08:21:03;95661.84;;;2.05;100.00
18167;BME280;9208;42.688;23.404;2023-01-30T08:23:33;95655.72;;;2.01;100.00
18167;BME280;9208;42.688;23.404;2023-01-30T08:26:03;95654.41;;;2.09;100.00
18167;BME280;9208;42.688;23.404;2023-01-30T08:28:29;95656.78;;;2.07;100.00
18167;BME280;9208;42.688;23.404;2023-01-30T08:30:55;95660.72;;;2.03;100.00
18167;BME280;9208;42.688;23.404;2023-01-30T08:33:22;95645.19;;;2.07;100.00
18167;BME280;9208;42.688;23.404;2023-01-30T08:35:47;95644.09;;;2.04;100.00
18167;BME280;9208;42.688;23.404;2023-01-30T08:38:16;95640.19;;;2.05;100.00
18167;BME280;9208;42.688;23.404;2023-01-30T08:40:42;95641.72;;;2.06;100.00
18167;BME280;9208;42.688;23.404;2023-01-30T08:43:08;95638.81;;;1.97;100.00
18167;BME280;9208;42.688;23.404;2023-01-30T08:45:33;95641.03;;;2.02;100.00
18167;BME280;9208;42.688;23.404;2023-01-30T08:48:00;95632.19;;;2.02;100.00
18167;BME280;9208;42.688;23.404;2023-01-30T08:50:27;95626.28;;;2.07;100.00
18167;BME280;9208;42.688;23.404;2023-01-30T08:52:54;95629.88;;;2.20;100.00
18167;BME280;9208;42.688;23.404;2023-01-30T08:55:20;95629.78;;;2.23;100.00
18167;BME280;9208;42.688;23.404;2023-01-30T08:57:46;95632.75;;;2.29;100.00
18167;BME280;9208;42.688;23.404;2023-01-30T09:00:12;95630.59;;;2.20;100.00
18167;BME280;9208;42.688;23.404;2023-01-30T09:02:38;95618.97;;;2.23;100.00
18167;BME280;9208;42.688;23.404;2023-01-30T09:05:05;95617.91;;;2.37;100.00
18167;BME280;9208;42.688;23.404;2023-01-30T09:07:30;95613.22;;;2.37;100.00
18167;BME280;9208;42.688;23.404;2023-01-30T09:09:56;95617.81;;;2.40;100.00
18167;BME280;9208;42.688;23.404;2023-01-30T09:12:21;95611.63;;;2.40;100.00
18167;BME280;9208;42.688;23.404;2023-01-30T09:14:47;95612.81;;;2.39;100.00
18167;BME280;9208;42.688;23.404;2023-01-30T09:17:12;95615.53;;;2.39;100.00
18167;BME280;9208;42.688;23.404;2023-01-30T09:19:38;95610.88;;;2.39;100.00
18167;BME280;9208;42.688;23.404;2023-01-30T09:22:04;95605.81;;;2.41;100.00
18167;BME280;9208;42.688;23.404;2023-01-30T09:24:30;95608.50;;;2.41;100.00
18167;BME280;9208;42.688;23.404;2023-01-30T09:26:56;95609.69;;;2.40;100.00
18167;BME280;9208;42.688;23.404;2023-01-30T09:29:24;95614.94;;;2.47;100.00
18167;BME280;9208;42.688;23.404;2023-01-30T09:31:50;95606.66;;;2.54;100.00
18167;BME280;9208;42.688;23.404;2023-01-30T09:34:15;95609.88;;;2.49;100.00
18167;BME280;9208;42.688;23.404;2023-01-30T09:36:41;95607.25;;;2.46;100.00
18167;BME280;9208;42.688;23.404;2023-01-30T09:39:06;95605.06;;;2.41;100.00
18167;BME280;9208;42.688;23.404;2023-01-30T09:47:13;95588.16;;;2.37;100.00
18167;BME280;9208;42.688;23.404;2023-01-30T09:52:18;95592.88;;;2.49;100.00
18167;BME280;9208;42.688;23.404;2023-01-30T09:54:50;95582.28;;;2.38;100.00
18167;BME280;9208;42.688;23.404;2023-01-30T09:57:21;95587.97;;;2.44;100.00
18167;BME280;9208;42.688;23.404;2023-01-30T10:00:08;95572.91;;;2.43;100.00
18167;BME280;9208;42.688;23.404;2023-01-30T10:05:55;95568.88;;;2.51;100.00
18167;BME280;9208;42.688;23.404;2023-01-30T10:11:41;95561.00;;;2.40;100.00
18167;BME280;9208;42.688;23.404;2023-01-30T10:23:18;95538.09;;;2.29;100.00
18167;BME280;9208;42.688;23.404;2023-01-30T10:25:53;95534.84;;;2.18;100.00
18167;BME280;9208;42.688;23.404;2023-01-30T10:28:38;95528.78;;;2.14;100.00
18167;BME280;9208;42.688;23.404;2023-01-30T10:31:13;95523.03;;;2.12;100.00
18167;BME280;9208;42.688;23.404;2023-01-30T10:34:04;95523.63;;;2.19;100.00
18167;BME280;9208;42.688;23.404;2023-01-30T10:39:30;95508.91;;;2.20;100.00
18167;BME280;9208;42.688;23.404;2023-01-30T10:42:08;95500.22;;;2.29;100.00
18167;BME280;9208;42.688;23.404;2023-01-30T10:44:37;95493.47;;;2.37;100.00
18167;BME280;9208;42.688;23.404;2023-01-30T10:57:41;95476.63;;;2.29;100.00
18167;BME280;9208;42.688;23.404;2023-01-30T11:00:31;95468.03;;;2.34;100.00
18167;BME280;9208;42.688;23.404;2023-01-30T11:05:44;95449.41;;;2.20;100.00
18167;BME280;9208;42.688;23.404;2023-01-30T11:08:27;95446.88;;;2.29;100.00
18167;BME280;9208;42.688;23.404;2023-01-30T11:10:54;95438.13;;;2.25;100.00
18167;BME280;9208;42.688;23.404;2023-01-30T11:15:57;95429.38;;;2.34;100.00
18167;BME280;9208;42.688;23.404;2023-01-30T11:18:24;95420.28;;;2.28;100.00
18167;BME280;9208;42.688;23.404;2023-01-30T11:23:35;95414.75;;;2.31;100.00
18167;BME280;9208;42.688;23.404;2023-01-30T11:26:04;95404.63;;;2.19;100.00
18167;BME280;9208;42.688;23.404;2023-01-30T11:28:48;95397.75;;;2.31;100.00
18167;BME280;9208;42.688;23.404;2023-01-30T11:31:24;95398.34;;;2.38;100.00
18167;BME280;9208;42.688;23.404;2023-01-30T11:34:02;95400.09;;;2.45;100.00
18167;BME280;9208;42.688;23.404;2023-01-30T11:36:34;95389.47;;;2.38;100.00
18167;BME280;9208;42.688;23.404;2023-01-30T11:39:01;95389.59;;;2.34;100.00
18167;BME280;9208;42.688;23.404;2023-01-30T11:41:29;95381.88;;;2.33;100.00
18167;BME280;9208;42.688;23.404;2023-01-30T11:44:02;95383.31;;;2.37;100.00
18167;BME280;9208;42.688;23.404;2023-01-30T11:46:37;95370.66;;;2.34;100.00
18167;BME280;9208;42.688;23.404;2023-01-30T11:49:14;95371.97;;;2.42;100.00
18167;BME280;9208;42.688;23.404;2023-01-30T11:51:47;95367.59;;;2.32;100.00
18167;BME280;9208;42.688;23.404;2023-01-30T11:54:20;95352.47;;;2.35;100.00
18167;BME280;9208;42.688;23.404;2023-01-30T11:56:54;95343.59;;;2.34;100.00
18167;BME280;9208;42.688;23.404;2023-01-30T11:59:33;95351.06;;;2.14;100.00
18167;BME280;9208;42.688;23.404;2023-01-30T12:04:59;95331.72;;;2.16;100.00
18167;BME280;9208;42.688;23.404;2023-01-30T12:07:27;95329.44;;;2.14;100.00
18167;BME280;9208;42.688;23.404;2023-01-30T12:09:54;95324.69;;;2.18;100.00
18167;BME280;9208;42.688;23.404;2023-01-30T12:15:00;95317.94;;;2.10;100.00
18167;BME280;9208;42.688;23.404;2023-01-30T12:18:31;95314.50;;;2.10;100.00
18167;BME280;9208;42.688;23.404;2023-01-30T12:23:16;95306.50;;;1.90;100.00
18167;BME280;9208;42.688;23.404;2023-01-30T12:29:26;95302.13;;;1.64;100.00
18167;BME280;9208;42.688;23.404;2023-01-30T12:31:32;95290.97;;;1.78;100.00
18167;BME280;9208;42.688;23.404;2023-01-30T12:34:01;95287.78;;;1.67;100.00
18167;BME280;9208;42.688;23.404;2023-01-30T12:50:05;95267.06;;;1.93;100.00
18167;BME280;9208;42.688;23.404;2023-01-30T12:52:49;95263.59;;;1.92;100.00
18167;BME280;9208;42.688;23.404;2023-01-30T13:03:39;95246.22;;;1.77;100.00
18167;BME280;9208;42.688;23.404;2023-01-30T13:06:26;95252.06;;;1.76;100.00
18167;BME280;9208;42.688;23.404;2023-01-30T13:11:51;95253.25;;;1.75;100.00
18167;BME280;9208;42.688;23.404;2023-01-30T13:17:55;95247.56;;;1.85;100.00
18167;BME280;9208;42.688;23.404;2023-01-30T13:23:15;95241.28;;;1.88;100.00
18167;BME280;9208;42.688;23.404;2023-01-30T13:28:18;95232.03;;;1.89;100.00
18167;BME280;9208;42.688;23.404;2023-01-30T13:30:46;95229.13;;;1.96;100.00
18167;BME280;9208;42.688;23.404;2023-01-30T13:33:19;95224.38;;;2.00;100.00
18167;BME280;9208;42.688;23.404;2023-01-30T13:35:50;95218.31;;;1.96;100.00
18167;BME280;9208;42.688;23.404;2023-01-30T13:38:24;95221.66;;;2.00;100.00
18167;BME280;9208;42.688;23.404;2023-01-30T13:40:53;95219.00;;;2.13;100.00
18167;BME280;9208;42.688;23.404;2023-01-30T13:43:29;95215.19;;;2.10;100.00
18167;BME280;9208;42.688;23.404;2023-01-30T13:46:00;95206.56;;;2.15;100.00
18167;BME280;9208;42.688;23.404;2023-01-30T13:56:24;95212.31;;;2.17;100.00
18167;BME280;9208;42.688;23.404;2023-01-30T13:58:57;95208.19;;;2.13;100.00
18167;BME280;9208;42.688;23.404;2023-01-30T14:09:42;95205.72;;;2.31;100.00
18167;BME280;9208;42.688;23.404;2023-01-30T14:12:21;95203.56;;;2.26;100.00
18167;BME280;9208;42.688;23.404;2023-01-30T14:15:03;95213.66;;;2.38;100.00
18167;BME280;9208;42.688;23.404;2023-01-30T14:17:29;95207.88;;;2.23;100.00
18167;BME280;9208;42.688;23.404;2023-01-30T14:19:58;95207.34;;;2.28;100.00
18167;BME280;9208;42.688;23.404;2023-01-30T14:23:17;95209.88;;;2.35;100.00
18167;BME280;9208;42.688;23.404;2023-01-30T14:32:59;95206.63;;;2.28;100.00
18167;BME280;9208;42.688;23.404;2023-01-30T14:35:29;95207.41;;;2.41;100.00
18167;BME280;9208;42.688;23.404;2023-01-30T14:38:14;95205.97;;;2.36;100.00
18167;BME280;9208;42.688;23.404;2023-01-30T14:40:47;95203.31;;;2.20;100.00
18167;BME280;9208;42.688;23.404;2023-01-30T14:45:47;95191.56;;;2.27;100.00
18167;BME280;9208;42.688;23.404;2023-01-30T14:48:32;95190.81;;;2.26;100.00
18167;BME280;9208;42.688;23.404;2023-01-30T14:56:15;95186.47;;;2.29;100.00
18167;BME280;9208;42.688;23.404;2023-01-30T14:59:02;95189.38;;;2.22;100.00
18167;BME280;9208;42.688;23.404;2023-01-30T15:04:26;95170.53;;;2.06;100.00
18167;BME280;9208;42.688;23.404;2023-01-30T15:06:52;95174.66;;;2.10;100.00
18167;BME280;9208;42.688;23.404;2023-01-30T15:09:20;95179.06;;;2.04;100.00
18167;BME280;9208;42.688;23.404;2023-01-30T15:12:06;95170.72;;;1.99;100.00
18167;BME280;9208;42.688;23.404;2023-01-30T15:15:13;95170.50;;;1.93;100.00
18167;BME280;9208;42.688;23.404;2023-01-30T15:17:49;95179.78;;;1.92;100.00
18167;BME280;9208;42.688;23.404;2023-01-30T15:25:51;95174.19;;;1.87;100.00
18167;BME280;9208;42.688;23.404;2023-01-30T15:31:25;95183.13;;;1.55;100.00
18167;BME280;9208;42.688;23.404;2023-01-30T15:33:53;95180.03;;;1.69;100.00
18167;BME280;9208;42.688;23.404;2023-01-30T15:38:55;95181.69;;;1.79;100.00
18167;BME280;9208;42.688;23.404;2023-01-30T15:41:21;95183.72;;;1.75;100.00
18167;BME280;9208;42.688;23.404;2023-01-30T15:44:05;95181.78;;;1.76;100.00
18167;BME280;9208;42.688;23.404;2023-01-30T15:51:51;95181.72;;;1.51;100.00
18167;BME280;9208;42.688;23.404;2023-01-30T15:54:19;95175.72;;;1.43;100.00
18167;BME280;9208;42.688;23.404;2023-01-30T15:56:47;95172.41;;;1.52;100.00
18167;BME280;9208;42.688;23.404;2023-01-30T15:59:29;95177.72;;;1.55;100.00
18167;BME280;9208;42.688;23.404;2023-01-30T16:04:28;95177.28;;;1.57;100.00
18167;BME280;9208;42.688;23.404;2023-01-30T16:06:54;95177.34;;;1.69;100.00
18167;BME280;9208;42.688;23.404;2023-01-30T16:09:24;95173.31;;;1.61;100.00